createdAt,value
2022-12-31T00:01:30.573Z,7.77
2022-12-31T00:03:57.425Z,7.82
2022-12-31T00:06:32.362Z,7.83
2022-12-31T00:08:59.784Z,7.68
2022-12-31T00:11:29.885Z,7.66
2022-12-31T00:13:56.873Z,7.66
2022-12-31T00:16:24.790Z,7.70
2022-12-31T00:18:53.602Z,7.71
2022-12-31T00:21:23.567Z,7.75
2022-12-31T00:23:55.201Z,7.80
2022-12-31T00:26:27.337Z,7.83
2022-12-31T00:28:57.081Z,7.70
2022-12-31T00:31:24.984Z,7.66
2022-12-31T00:33:54.001Z,7.52
2022-12-31T00:36:22.177Z,7.44
2022-12-31T00:38:49.397Z,7.37
2022-12-31T00:41:17.152Z,7.31
2022-12-31T00:43:44.438Z,7.30
2022-12-31T00:46:16.161Z,7.32
2022-12-31T00:48:43.192Z,7.30
2022-12-31T00:51:13.755Z,7.30
2022-12-31T00:53:43.035Z,7.28
2022-12-31T00:56:16.872Z,7.36
2022-12-31T00:58:43.702Z,7.46
2022-12-31T01:01:17.815Z,7.48
2022-12-31T01:03:44.801Z,7.54
2022-12-31T01:06:14.163Z,7.58
2022-12-31T01:08:43.313Z,7.61
2022-12-31T01:11:19.629Z,7.63
2022-12-31T01:13:59.018Z,7.63
2022-12-31T01:16:31.291Z,7.67
2022-12-31T01:19:02.133Z,7.74
2022-12-31T01:21:31.639Z,7.78
2022-12-31T01:23:58.897Z,7.79
2022-12-31T01:26:28.507Z,7.80
2022-12-31T01:28:55.247Z,7.89
2022-12-31T01:31:27.727Z,7.91
2022-12-31T01:34:00.125Z,7.85
2022-12-31T01:36:31.467Z,7.82
2022-12-31T01:39:01.138Z,7.81
2022-12-31T01:41:35.160Z,7.78
2022-12-31T01:44:13.974Z,7.84
2022-12-31T01:47:00.861Z,7.84
2022-12-31T01:49:43.705Z,7.88
2022-12-31T01:52:17.879Z,7.94
2022-12-31T01:54:50.359Z,7.94
2022-12-31T01:57:26.986Z,7.96
2022-12-31T01:59:54.026Z,7.97
2022-12-31T02:02:30.782Z,7.95
2022-12-31T02:04:57.805Z,7.96
2022-12-31T02:07:26.956Z,8.01
2022-12-31T02:09:53.696Z,8.07
2022-12-31T02:12:20.534Z,8.05
2022-12-31T02:14:48.521Z,8.07
2022-12-31T02:17:18.143Z,8.06
2022-12-31T02:20:03.628Z,8.11
2022-12-31T02:22:51.564Z,8.13
2022-12-31T02:25:20.672Z,8.14
2022-12-31T02:27:52.773Z,8.11
2022-12-31T02:30:32.741Z,8.13
2022-12-31T02:33:04.936Z,8.13
2022-12-31T02:35:40.149Z,8.10
2022-12-31T02:38:18.660Z,8.02
2022-12-31T02:40:48.780Z,8.01
2022-12-31T02:43:20.890Z,7.99
2022-12-31T02:45:51.308Z,8.04
2022-12-31T02:48:21.062Z,8.05
2022-12-31T02:50:59.171Z,8.07
2022-12-31T02:53:31.231Z,8.11
2022-12-31T02:56:08.461Z,7.99
2022-12-31T02:58:58.827Z,7.96
2022-12-31T03:01:45.336Z,7.94
2022-12-31T03:04:31.246Z,7.97
2022-12-31T03:07:04.867Z,8.02
2022-12-31T03:09:31.992Z,8.08
2022-12-31T03:12:17.185Z,8.11
2022-12-31T03:14:43.902Z,8.14
2022-12-31T03:17:10.521Z,8.17
2022-12-31T03:19:56.333Z,8.13
2022-12-31T03:22:28.933Z,8.11
2022-12-31T03:25:15.800Z,8.13
2022-12-31T03:27:45.880Z,8.05
2022-12-31T03:30:13.246Z,8.03
2022-12-31T03:32:40.449Z,8.02
2022-12-31T03:35:07.377Z,8.05
2022-12-31T03:37:36.543Z,8.11
2022-12-31T03:40:03.546Z,8.11
2022-12-31T03:42:36.062Z,8.02
2022-12-31T03:45:05.129Z,8.02
2022-12-31T03:47:31.719Z,8.02
2022-12-31T03:49:58.308Z,8.05
2022-12-31T03:52:25.115Z,8.11
2022-12-31T03:54:54.322Z,8.16
2022-12-31T03:57:20.992Z,8.19
2022-12-31T03:59:50.133Z,8.22
2022-12-31T04:02:16.825Z,8.19
2022-12-31T04:04:43.651Z,8.21
2022-12-31T04:07:15.123Z,8.19
2022-12-31T04:09:42.224Z,8.11
2022-12-31T04:12:11.249Z,8.00
2022-12-31T04:14:40.349Z,8.06
2022-12-31T04:17:09.682Z,8.08
2022-12-31T04:19:38.774Z,8.07
2022-12-31T04:22:07.570Z,8.08
2022-12-31T04:24:36.623Z,8.11
2022-12-31T04:27:07.979Z,8.14
2022-12-31T04:29:35.300Z,8.13
2022-12-31T04:32:06.775Z,7.97
2022-12-31T04:34:33.573Z,7.88
2022-12-31T04:37:00.303Z,7.88
2022-12-31T04:39:27.044Z,7.82
2022-12-31T04:41:54.359Z,7.82
2022-12-31T04:44:21.073Z,7.86
2022-12-31T04:46:47.818Z,7.91
2022-12-31T04:49:14.448Z,7.77
2022-12-31T04:51:44.145Z,7.75
2022-12-31T04:54:15.700Z,7.76
2022-12-31T04:56:44.997Z,7.83
2022-12-31T04:59:13.996Z,7.90
2022-12-31T05:01:40.862Z,7.75
2022-12-31T05:04:07.598Z,7.79
2022-12-31T05:06:34.273Z,7.82
2022-12-31T05:09:03.331Z,7.89
2022-12-31T05:11:30.477Z,7.91
2022-12-31T05:13:57.115Z,7.92
2022-12-31T05:16:23.705Z,7.94
2022-12-31T05:18:50.329Z,7.71
2022-12-31T05:21:22.339Z,7.66
2022-12-31T05:23:49.383Z,7.71
2022-12-31T05:26:20.540Z,7.74
2022-12-31T05:28:47.195Z,7.63
2022-12-31T05:31:13.844Z,7.61
2022-12-31T05:33:43.521Z,7.63
2022-12-31T05:36:14.734Z,7.64
2022-12-31T05:38:44.918Z,7.69
2022-12-31T05:41:11.542Z,7.61
2022-12-31T05:43:41.135Z,7.64
2022-12-31T05:46:08.021Z,7.67
2022-12-31T05:48:34.591Z,7.69
2022-12-31T05:51:03.650Z,7.66
2022-12-31T05:53:30.378Z,7.66
2022-12-31T05:55:57.308Z,7.62
2022-12-31T05:58:24.228Z,7.66
2022-12-31T06:00:52.346Z,7.69
2022-12-31T06:03:21.501Z,7.70
2022-12-31T06:05:48.278Z,7.78
2022-12-31T06:08:14.901Z,7.86
2022-12-31T06:10:41.877Z,7.77
2022-12-31T06:13:09.088Z,7.82
2022-12-31T06:15:39.674Z,7.85
2022-12-31T06:18:08.820Z,7.90
2022-12-31T06:20:37.981Z,7.99
2022-12-31T06:23:09.988Z,8.04
2022-12-31T06:25:39.598Z,7.99
2022-12-31T06:28:06.306Z,8.03
2022-12-31T06:30:33.713Z,8.09
2022-12-31T06:33:08.685Z,8.11
2022-12-31T06:35:35.273Z,8.15
2022-12-31T06:38:01.839Z,8.12
2022-12-31T06:40:28.450Z,8.12
2022-12-31T06:43:00.454Z,8.16
2022-12-31T06:45:29.684Z,8.19
2022-12-31T06:47:56.379Z,8.20
2022-12-31T06:50:25.613Z,8.25
2022-12-31T06:52:53.539Z,8.29
2022-12-31T06:55:20.458Z,8.34
2022-12-31T06:57:47.215Z,8.31
2022-12-31T07:00:14.194Z,8.28
2022-12-31T07:02:53.244Z,8.25
2022-12-31T07:05:35.153Z,8.32
2022-12-31T07:08:11.450Z,8.39
2022-12-31T07:10:55.273Z,8.37
2022-12-31T07:13:30.165Z,8.24
2022-12-31T07:16:00.557Z,8.20
2022-12-31T07:18:30.252Z,8.28
2022-12-31T07:20:59.582Z,8.29
2022-12-31T07:23:28.583Z,8.29
2022-12-31T07:26:11.538Z,8.34
2022-12-31T07:28:38.168Z,8.40
2022-12-31T07:31:10.546Z,8.43
2022-12-31T07:33:43.675Z,8.45
2022-12-31T07:36:29.243Z,8.51
2022-12-31T07:39:09.322Z,8.52
2022-12-31T07:41:36.389Z,8.56
2022-12-31T07:44:06.680Z,8.58
2022-12-31T07:46:55.703Z,8.43
2022-12-31T07:49:25.305Z,8.42
2022-12-31T07:51:52.365Z,8.45
2022-12-31T07:54:19.151Z,8.54
2022-12-31T07:56:50.747Z,8.58
2022-12-31T07:59:25.762Z,8.65
2022-12-31T08:01:52.527Z,8.56
2022-12-31T08:04:41.885Z,8.63
2022-12-31T08:07:15.654Z,8.72
2022-12-31T08:09:58.400Z,8.76
2022-12-31T08:12:25.961Z,8.65
2022-12-31T08:14:52.611Z,8.53
2022-12-31T08:17:19.626Z,8.46
2022-12-31T08:19:46.500Z,8.59
2022-12-31T08:22:33.616Z,8.66
2022-12-31T08:25:08.849Z,8.79
2022-12-31T08:27:49.516Z,8.61
2022-12-31T08:30:22.639Z,8.72
2022-12-31T08:32:51.393Z,8.76
2022-12-31T08:35:27.077Z,8.75
2022-12-31T08:38:02.162Z,8.65
2022-12-31T08:40:31.968Z,8.64
2022-12-31T08:43:16.842Z,8.76
2022-12-31T08:45:53.149Z,8.74
2022-12-31T08:48:29.831Z,8.65
2022-12-31T08:50:56.710Z,8.35
2022-12-31T08:53:26.304Z,8.27
2022-12-31T08:55:54.705Z,8.28
2022-12-31T08:58:39.992Z,8.56
2022-12-31T09:01:07.189Z,8.71
2022-12-31T09:03:40.172Z,9.01
2022-12-31T09:06:07.266Z,9.27
2022-12-31T09:08:52.821Z,9.32
2022-12-31T09:11:41.228Z,9.50
2022-12-31T09:14:26.714Z,9.62
2022-12-31T09:16:56.474Z,9.53
2022-12-31T09:19:23.187Z,9.54
2022-12-31T09:21:52.383Z,9.64
2022-12-31T09:24:19.243Z,9.68
2022-12-31T09:27:04.751Z,9.77
2022-12-31T09:29:40.406Z,9.78
2022-12-31T09:32:19.264Z,9.76
2022-12-31T09:35:01.250Z,9.46
2022-12-31T09:37:36.394Z,9.41
2022-12-31T09:40:21.668Z,9.45
2022-12-31T09:42:54.281Z,9.52
2022-12-31T09:45:36.263Z,9.44
2022-12-31T09:48:22.066Z,9.42
2022-12-31T09:51:09.713Z,9.47
2022-12-31T09:53:36.592Z,9.23
2022-12-31T09:56:14.048Z,9.20
2022-12-31T09:58:46.771Z,9.44
2022-12-31T10:01:32.557Z,9.57
2022-12-31T10:04:20.504Z,9.70
2022-12-31T10:07:12.527Z,9.84
2022-12-31T10:09:56.756Z,9.95
2022-12-31T10:12:32.540Z,10.10
2022-12-31T10:15:20.373Z,10.29
2022-12-31T10:18:02.741Z,10.41
2022-12-31T10:20:44.931Z,10.53
2022-12-31T10:23:17.861Z,10.63
2022-12-31T10:25:48.989Z,10.71
2022-12-31T10:28:36.136Z,10.62
2022-12-31T10:31:17.749Z,10.70
2022-12-31T10:33:50.770Z,10.82
2022-12-31T10:36:17.475Z,10.81
2022-12-31T10:38:48.110Z,10.52
2022-12-31T10:41:33.821Z,10.19
2022-12-31T10:44:06.140Z,10.02
2022-12-31T10:46:47.963Z,9.94
2022-12-31T10:49:27.309Z,9.93
2022-12-31T10:52:00.484Z,9.93
2022-12-31T10:54:36.125Z,9.89
2022-12-31T10:57:21.411Z,9.77
2022-12-31T10:59:51.170Z,9.56
2022-12-31T11:02:39.074Z,9.58
2022-12-31T11:05:08.102Z,9.47
2022-12-31T11:07:54.680Z,9.56
2022-12-31T11:10:40.221Z,9.54
2022-12-31T11:13:22.601Z,9.50
2022-12-31T11:16:25.405Z,9.55
2022-12-31T11:18:59.597Z,9.62
2022-12-31T11:21:29.462Z,9.62
2022-12-31T11:23:59.434Z,9.50
2022-12-31T11:26:35.562Z,9.46
2022-12-31T11:29:08.352Z,9.55
2022-12-31T11:31:43.928Z,9.68
2022-12-31T11:34:30.259Z,9.79
2022-12-31T11:37:15.883Z,10.02
2022-12-31T11:39:53.158Z,10.15
2022-12-31T11:42:25.905Z,10.24
2022-12-31T11:44:54.761Z,10.38
2022-12-31T11:48:03.924Z,10.54
2022-12-31T11:50:46.857Z,10.62
2022-12-31T11:53:31.699Z,10.73
2022-12-31T11:56:09.779Z,10.84
2022-12-31T11:58:41.790Z,10.77
2022-12-31T12:01:11.185Z,10.55
2022-12-31T12:03:43.984Z,10.51
2022-12-31T12:06:14.785Z,10.74
2022-12-31T12:08:41.723Z,10.89
2022-12-31T12:11:27.905Z,10.96
2022-12-31T12:13:56.944Z,10.90
2022-12-31T12:16:26.201Z,11.08
2022-12-31T12:19:06.179Z,11.10
2022-12-31T12:21:32.821Z,11.17
2022-12-31T12:24:20.250Z,11.17
2022-12-31T12:26:49.423Z,11.39
2022-12-31T12:29:21.331Z,11.63
2022-12-31T12:32:01.666Z,11.87
2022-12-31T12:34:33.087Z,12.05
2022-12-31T12:37:00.537Z,11.94
2022-12-31T12:39:28.426Z,11.67
2022-12-31T12:42:04.163Z,11.76
2022-12-31T12:44:36.030Z,11.90
2022-12-31T12:47:03.484Z,11.88
2022-12-31T12:49:37.889Z,11.75
2022-12-31T12:52:10.274Z,11.65
2022-12-31T12:54:51.985Z,11.43
2022-12-31T12:57:26.809Z,11.28
2022-12-31T13:00:13.825Z,11.40
2022-12-31T13:02:58.955Z,11.23
2022-12-31T13:05:41.497Z,11.07
2022-12-31T13:08:11.316Z,11.32
2022-12-31T13:10:40.947Z,11.50
2022-12-31T13:13:37.061Z,11.38
2022-12-31T13:16:16.075Z,11.36
2022-12-31T13:18:42.735Z,11.46
2022-12-31T13:21:15.570Z,11.49
2022-12-31T13:23:51.009Z,11.53
2022-12-31T13:26:21.702Z,11.61
2022-12-31T13:28:48.545Z,11.68
2022-12-31T13:31:17.830Z,11.57
2022-12-31T13:33:45.259Z,11.35
2022-12-31T13:36:20.305Z,11.24
2022-12-31T13:38:53.707Z,11.25
2022-12-31T13:41:26.427Z,11.29
2022-12-31T13:43:59.057Z,11.26
2022-12-31T13:46:28.802Z,11.19
2022-12-31T13:48:59.120Z,11.07
2022-12-31T13:51:31.787Z,10.97
2022-12-31T13:54:01.933Z,11.01
2022-12-31T13:56:29.876Z,11.13
2022-12-31T13:59:06.691Z,11.21
2022-12-31T14:01:38.060Z,11.27
2022-12-31T14:04:19.164Z,11.31
2022-12-31T14:07:06.587Z,11.07
2022-12-31T14:09:34.078Z,10.87
2022-12-31T14:12:00.715Z,10.95
2022-12-31T14:14:31.672Z,11.15
2022-12-31T14:17:17.819Z,11.28
2022-12-31T14:19:50.759Z,11.45
2022-12-31T14:22:29.747Z,11.51
2022-12-31T14:24:59.147Z,11.28
2022-12-31T14:27:43.880Z,11.12
2022-12-31T14:30:17.441Z,11.15
2022-12-31T14:32:44.301Z,11.19
2022-12-31T14:35:19.272Z,11.26
2022-12-31T14:37:45.851Z,11.27
2022-12-31T14:40:12.481Z,11.19
2022-12-31T14:42:42.133Z,11.15
2022-12-31T14:45:23.271Z,10.88
2022-12-31T14:47:57.588Z,10.70
2022-12-31T14:50:28.148Z,10.57
2022-12-31T14:52:55.703Z,10.55
2022-12-31T14:55:39.259Z,10.66
2022-12-31T14:58:38.347Z,10.76
2022-12-31T15:01:22.323Z,10.79
2022-12-31T15:03:52.128Z,10.68
2022-12-31T15:06:31.522Z,10.52
2022-12-31T15:12:11.471Z,10.24
2022-12-31T15:14:50.979Z,10.24
2022-12-31T15:17:19.872Z,10.02
2022-12-31T15:19:51.857Z,9.96
2022-12-31T15:22:18.577Z,9.98
2022-12-31T15:24:47.856Z,10.10
2022-12-31T15:27:27.515Z,10.30
2022-12-31T15:30:03.039Z,10.42
2022-12-31T15:32:40.169Z,10.46
2022-12-31T15:35:22.558Z,10.49
2022-12-31T15:38:09.448Z,10.49
2022-12-31T15:40:43.161Z,10.51
2022-12-31T15:43:42.783Z,10.47
2022-12-31T15:46:18.699Z,10.62
2022-12-31T15:49:15.406Z,10.71
2022-12-31T15:51:58.558Z,10.79
2022-12-31T15:54:56.403Z,10.88
2022-12-31T16:00:28.675Z,11.04
2022-12-31T16:02:58.408Z,11.08
2022-12-31T16:05:27.750Z,11.13
2022-12-31T16:07:57.300Z,11.03
2022-12-31T16:10:27.723Z,10.79
2022-12-31T16:13:14.481Z,10.67
2022-12-31T16:16:01.248Z,10.53
2022-12-31T16:18:36.411Z,10.50
2022-12-31T16:21:03.047Z,10.55
2022-12-31T16:23:29.618Z,10.61
2022-12-31T16:25:59.764Z,10.65
2022-12-31T16:28:30.685Z,10.66
2022-12-31T16:31:01.168Z,10.62
2022-12-31T16:33:30.154Z,10.58
2022-12-31T16:36:00.901Z,10.49
2022-12-31T16:38:37.101Z,10.46
2022-12-31T16:41:04.148Z,10.41
2022-12-31T16:43:37.408Z,10.40
2022-12-31T16:46:21.384Z,10.29
2022-12-31T16:48:58.701Z,10.23
2022-12-31T16:51:29.350Z,10.18
2022-12-31T16:53:56.398Z,10.20
2022-12-31T16:56:25.000Z,10.23
2022-12-31T16:58:53.504Z,10.09
2022-12-31T17:01:29.372Z,10.02
2022-12-31T17:03:58.863Z,10.04
2022-12-31T17:06:27.129Z,10.08
2022-12-31T17:08:58.022Z,10.04
2022-12-31T17:11:30.810Z,10.02
2022-12-31T17:14:07.328Z,9.97
2022-12-31T17:16:43.027Z,9.84
2022-12-31T17:19:31.180Z,9.89
2022-12-31T17:21:57.964Z,9.97
2022-12-31T17:24:24.699Z,10.05
2022-12-31T17:26:51.587Z,10.13
2022-12-31T17:29:26.707Z,10.16
2022-12-31T17:32:00.727Z,10.12
2022-12-31T17:34:31.818Z,10.00
2022-12-31T17:37:05.784Z,10.06
2022-12-31T17:39:43.580Z,10.10
2022-12-31T17:42:11.528Z,10.14
2022-12-31T17:44:42.479Z,10.04
2022-12-31T17:47:14.025Z,10.07
2022-12-31T17:49:41.920Z,9.97
2022-12-31T17:52:15.595Z,9.95
2022-12-31T17:54:42.290Z,9.86
2022-12-31T17:57:17.781Z,9.86
2022-12-31T17:59:44.520Z,9.87
2022-12-31T18:02:14.685Z,9.87
2022-12-31T18:04:43.970Z,9.85
2022-12-31T18:07:12.875Z,9.78
2022-12-31T18:09:39.694Z,9.75
2022-12-31T18:12:06.802Z,9.72
2022-12-31T18:14:35.919Z,9.65
2022-12-31T18:17:02.690Z,9.64
2022-12-31T18:22:16.433Z,9.53
2022-12-31T18:24:47.578Z,9.42
2022-12-31T18:27:15.486Z,9.26
2022-12-31T18:29:42.417Z,9.15
2022-12-31T18:32:19.067Z,9.15
2022-12-31T18:34:48.517Z,9.16
2022-12-31T18:37:21.434Z,9.16
2022-12-31T18:39:49.416Z,9.19
2022-12-31T18:42:16.932Z,9.16
2022-12-31T18:44:48.021Z,9.11
2022-12-31T18:47:15.859Z,9.23
2022-12-31T18:49:42.999Z,9.31
2022-12-31T18:52:15.786Z,9.41
2022-12-31T18:54:42.568Z,9.34
2022-12-31T18:57:12.687Z,9.38
2022-12-31T18:59:42.172Z,9.34
2022-12-31T19:02:12.968Z,9.32
2022-12-31T19:04:41.971Z,9.36
2022-12-31T19:07:10.805Z,9.43
2022-12-31T19:09:46.118Z,9.48
2022-12-31T19:12:17.915Z,9.50
2022-12-31T19:14:47.658Z,9.54
2022-12-31T19:17:14.452Z,9.57
2022-12-31T19:19:41.167Z,9.59
2022-12-31T19:22:09.838Z,9.59
2022-12-31T19:24:36.564Z,9.57
2022-12-31T19:27:05.593Z,9.48
2022-12-31T19:29:33.538Z,9.42
2022-12-31T19:32:05.198Z,9.41
2022-12-31T19:34:31.888Z,9.37
2022-12-31T19:37:01.010Z,9.31
2022-12-31T19:39:27.759Z,9.18
2022-12-31T19:41:59.788Z,9.10
2022-12-31T19:44:26.647Z,9.10
2022-12-31T19:46:53.275Z,9.09
2022-12-31T19:49:20.386Z,9.11
2022-12-31T19:51:47.002Z,9.12
2022-12-31T19:54:17.095Z,9.08
2022-12-31T19:56:43.785Z,9.03
2022-12-31T19:59:10.972Z,9.06
2022-12-31T20:01:37.878Z,9.11
2022-12-31T20:04:05.171Z,9.11
2022-12-31T20:06:31.725Z,9.16
2022-12-31T20:08:58.387Z,9.17
2022-12-31T20:11:25.249Z,9.14
2022-12-31T20:13:54.287Z,9.15
2022-12-31T20:16:24.055Z,9.17
2022-12-31T20:18:51.046Z,9.21
2022-12-31T20:21:18.866Z,9.20
2022-12-31T20:23:46.373Z,9.19
2022-12-31T20:26:15.656Z,9.20
2022-12-31T20:28:42.349Z,9.23
2022-12-31T20:31:13.432Z,9.16
2022-12-31T20:33:40.492Z,9.08
2022-12-31T20:36:08.324Z,9.06
2022-12-31T20:38:37.547Z,8.94
2022-12-31T20:41:10.372Z,8.85
2022-12-31T20:43:37.451Z,8.73
2022-12-31T20:46:14.925Z,8.70
2022-12-31T20:48:42.811Z,8.58
2022-12-31T20:51:09.421Z,8.56
2022-12-31T20:53:38.525Z,8.47
2022-12-31T20:56:05.583Z,8.39
2022-12-31T20:58:34.412Z,8.37
2022-12-31T21:01:07.917Z,8.40
2022-12-31T21:06:25.307Z,8.53
2022-12-31T21:08:51.960Z,8.48
2022-12-31T21:11:37.511Z,8.43
2022-12-31T21:14:06.847Z,8.47
2022-12-31T21:16:38.420Z,8.45
2022-12-31T21:19:05.646Z,8.44
2022-12-31T21:21:32.447Z,8.48
2022-12-31T21:24:03.635Z,8.47
2022-12-31T21:26:34.486Z,8.50
2022-12-31T21:29:01.196Z,8.45
2022-12-31T21:31:33.335Z,8.37
2022-12-31T21:34:02.454Z,8.38
2022-12-31T21:36:29.037Z,8.40
2022-12-31T21:39:00.653Z,8.34
2022-12-31T21:41:45.885Z,8.30
2022-12-31T21:44:14.881Z,8.12
2022-12-31T21:47:00.698Z,8.07
2022-12-31T21:49:27.712Z,8.10
2022-12-31T21:52:13.093Z,8.15
2022-12-31T21:54:58.625Z,8.15
2022-12-31T21:57:25.392Z,8.20
2022-12-31T22:00:40.233Z,8.14
2022-12-31T22:03:16.735Z,8.12
2022-12-31T22:05:55.983Z,8.12
2022-12-31T22:08:25.249Z,8.14
2022-12-31T22:10:53.061Z,8.00
2022-12-31T22:13:20.144Z,7.96
2022-12-31T22:15:47.725Z,7.93
2022-12-31T22:18:15.094Z,7.91
2022-12-31T22:20:44.252Z,7.96
2022-12-31T22:23:15.839Z,7.97
2022-12-31T22:25:45.603Z,7.88
2022-12-31T22:28:37.630Z,7.83
2022-12-31T22:30:58.992Z,7.78
2022-12-31T22:33:25.885Z,7.82
2022-12-31T22:36:02.018Z,7.85
2022-12-31T22:38:32.194Z,7.91
2022-12-31T22:41:11.167Z,7.98
2022-12-31T22:43:39.293Z,7.99
2022-12-31T22:46:06.890Z,8.01
2022-12-31T22:48:33.595Z,8.02
2022-12-31T22:51:00.408Z,8.04
2022-12-31T22:53:32.000Z,8.05
2022-12-31T22:55:58.692Z,8.01
2022-12-31T22:58:25.775Z,7.92
2022-12-31T23:00:52.960Z,7.90
2022-12-31T23:03:21.809Z,7.80
2022-12-31T23:05:54.455Z,7.76
2022-12-31T23:08:23.610Z,7.79
2022-12-31T23:11:05.927Z,7.79
2022-12-31T23:13:58.300Z,7.79
2022-12-31T23:16:44.256Z,7.79
2022-12-31T23:19:29.599Z,7.81
2022-12-31T23:22:14.857Z,7.83
2022-12-31T23:24:47.058Z,7.83
2022-12-31T23:27:15.028Z,7.79
2022-12-31T23:29:47.702Z,7.63
2022-12-31T23:32:18.325Z,7.65
2022-12-31T23:34:45.219Z,7.66
2022-12-31T23:37:15.088Z,7.68
2022-12-31T23:39:43.991Z,7.70
2022-12-31T23:42:15.319Z,7.70
2022-12-31T23:44:44.904Z,7.74
2022-12-31T23:47:11.572Z,7.77
2022-12-31T23:49:38.270Z,7.75
2022-12-31T23:52:04.999Z,7.71
2022-12-31T23:54:31.617Z,7.75
2022-12-31T23:56:58.203Z,7.76
2022-12-31T23:59:24.890Z,7.84
